sensor_id;sensor_type;location;lat;lon;timestamp;P1;durP1;ratioP1;P2;durP2;ratioP2
57401;SDS011;43226;51.110;6.998;2023-04-03T00:01:52;7.77;;;4.63;;
57401;SDS011;43226;51.110;6.998;2023-04-03T00:04:17;9.53;;;4.63;;
57401;SDS011;43226;51.110;6.998;2023-04-03T00:06:42;7.00;;;4.67;;
57401;SDS011;43226;51.110;6.998;2023-04-03T00:09:08;5.87;;;4.83;;
57401;SDS011;43226;51.110;6.998;2023-04-03T00:11:33;6.80;;;3.93;;
57401;SDS011;43226;51.110;6.998;2023-04-03T00:13:58;5.00;;;3.87;;
57401;SDS011;43226;51.110;6.998;2023-04-03T00:16:23;7.83;;;4.50;;
57401;SDS011;43226;51.110;6.998;2023-04-03T00:18:48;6.87;;;3.87;;
57401;SDS011;43226;51.110;6.998;2023-04-03T00:21:13;9.47;;;4.60;;
57401;SDS011;43226;51.110;6.998;2023-04-03T00:23:39;5.50;;;4.70;;
57401;SDS011;43226;51.110;6.998;2023-04-03T00:26:04;7.27;;;4.17;;
57401;SDS011;43226;51.110;6.998;2023-04-03T00:28:30;5.57;;;4.90;;
57401;SDS011;43226;51.110;6.998;2023-04-03T00:30:55;5.60;;;4.73;;
57401;SDS011;43226;51.110;6.998;2023-04-03T00:33:20;5.97;;;4.73;;
57401;SDS011;43226;51.110;6.998;2023-04-03T00:35:46;7.93;;;4.40;;
57401;SDS011;43226;51.110;6.998;2023-04-03T00:38:11;5.17;;;4.20;;
57401;SDS011;43226;51.110;6.998;2023-04-03T00:40:38;5.50;;;4.50;;
57401;SDS011;43226;51.110;6.998;2023-04-03T00:43:10;4.77;;;4.30;;
57401;SDS011;43226;51.110;6.998;2023-04-03T00:45:37;7.57;;;5.20;;
57401;SDS011;43226;51.110;6.998;2023-04-03T00:48:03;7.13;;;4.27;;
57401;SDS011;43226;51.110;6.998;2023-04-03T00:50:30;7.53;;;5.40;;
57401;SDS011;43226;51.110;6.998;2023-04-03T00:52:56;7.13;;;4.10;;
57401;SDS011;43226;51.110;6.998;2023-04-03T00:55:21;5.50;;;4.53;;
57401;SDS011;43226;51.110;6.998;2023-04-03T00:57:47;5.93;;;4.80;;
57401;SDS011;43226;51.110;6.998;2023-04-03T01:00:14;7.23;;;5.30;;
57401;SDS011;43226;51.110;6.998;2023-04-03T01:02:40;6.03;;;4.73;;
57401;SDS011;43226;51.110;6.998;2023-04-03T01:05:06;10.43;;;5.33;;
57401;SDS011;43226;51.110;6.998;2023-04-03T01:07:31;6.03;;;4.93;;
57401;SDS011;43226;51.110;6.998;2023-04-03T01:10:00;5.63;;;4.60;;
57401;SDS011;43226;51.110;6.998;2023-04-03T01:12:30;5.53;;;4.53;;
57401;SDS011;43226;51.110;6.998;2023-04-03T01:14:59;5.50;;;4.47;;
57401;SDS011;43226;51.110;6.998;2023-04-03T01:19:57;5.97;;;4.70;;
57401;SDS011;43226;51.110;6.998;2023-04-03T01:22:29;8.80;;;5.37;;
57401;SDS011;43226;51.110;6.998;2023-04-03T01:25:00;7.30;;;4.50;;
57401;SDS011;43226;51.110;6.998;2023-04-03T01:27:25;5.60;;;4.60;;
57401;SDS011;43226;51.110;6.998;2023-04-03T01:29:51;7.67;;;4.20;;
57401;SDS011;43226;51.110;6.998;2023-04-03T01:32:16;6.03;;;5.30;;
57401;SDS011;43226;51.110;6.998;2023-04-03T01:34:41;4.67;;;4.17;;
57401;SDS011;43226;51.110;6.998;2023-04-03T01:37:06;6.77;;;4.83;;
57401;SDS011;43226;51.110;6.998;2023-04-03T01:39:31;8.27;;;5.13;;
57401;SDS011;43226;51.110;6.998;2023-04-03T01:41:56;5.07;;;4.67;;
57401;SDS011;43226;51.110;6.998;2023-04-03T01:44:24;5.93;;;4.47;;
57401;SDS011;43226;51.110;6.998;2023-04-03T01:46:49;7.23;;;4.90;;
57401;SDS011;43226;51.110;6.998;2023-04-03T01:49:14;12.10;;;4.57;;
57401;SDS011;43226;51.110;6.998;2023-04-03T01:51:39;5.83;;;4.70;;
57401;SDS011;43226;51.110;6.998;2023-04-03T01:54:04;5.83;;;4.63;;
57401;SDS011;43226;51.110;6.998;2023-04-03T01:56:30;6.03;;;4.80;;
57401;SDS011;43226;51.110;6.998;2023-04-03T01:58:55;5.00;;;4.50;;
57401;SDS011;43226;51.110;6.998;2023-04-03T02:01:20;8.23;;;4.57;;
57401;SDS011;43226;51.110;6.998;2023-04-03T02:03:46;4.87;;;4.10;;
57401;SDS011;43226;51.110;6.998;2023-04-03T02:06:11;7.87;;;4.83;;
57401;SDS011;43226;51.110;6.998;2023-04-03T02:08:36;5.13;;;4.33;;
57401;SDS011;43226;51.110;6.998;2023-04-03T02:11:01;7.07;;;4.17;;
57401;SDS011;43226;51.110;6.998;2023-04-03T02:13:26;5.40;;;4.00;;
57401;SDS011;43226;51.110;6.998;2023-04-03T02:15:52;11.23;;;4.03;;
57401;SDS011;43226;51.110;6.998;2023-04-03T02:18:17;6.80;;;4.27;;
57401;SDS011;43226;51.110;6.998;2023-04-03T02:20:42;5.47;;;4.20;;
57401;SDS011;43226;51.110;6.998;2023-04-03T02:23:07;5.10;;;4.20;;
57401;SDS011;43226;51.110;6.998;2023-04-03T02:25:32;4.43;;;3.87;;
57401;SDS011;43226;51.110;6.998;2023-04-03T02:27:58;4.37;;;4.00;;
57401;SDS011;43226;51.110;6.998;2023-04-03T02:30:23;4.60;;;4.20;;
57401;SDS011;43226;51.110;6.998;2023-04-03T02:32:48;5.17;;;3.67;;
57401;SDS011;43226;51.110;6.998;2023-04-03T02:35:13;5.70;;;3.97;;
57401;SDS011;43226;51.110;6.998;2023-04-03T02:37:38;7.63;;;4.00;;
57401;SDS011;43226;51.110;6.998;2023-04-03T02:40:04;6.90;;;4.20;;
57401;SDS011;43226;51.110;6.998;2023-04-03T02:42:30;4.00;;;3.40;;
57401;SDS011;43226;51.110;6.998;2023-04-03T02:44:55;4.30;;;3.60;;
57401;SDS011;43226;51.110;6.998;2023-04-03T02:47:20;4.70;;;3.90;;
57401;SDS011;43226;51.110;6.998;2023-04-03T02:49:46;4.53;;;3.80;;
57401;SDS011;43226;51.110;6.998;2023-04-03T02:52:11;5.70;;;3.40;;
57401;SDS011;43226;51.110;6.998;2023-04-03T02:54:37;10.23;;;4.30;;
57401;SDS011;43226;51.110;6.998;2023-04-03T02:57:02;3.80;;;3.20;;
57401;SDS011;43226;51.110;6.998;2023-04-03T02:59:27;3.77;;;3.40;;
57401;SDS011;43226;51.110;6.998;2023-04-03T03:01:52;5.40;;;3.90;;
57401;SDS011;43226;51.110;6.998;2023-04-03T03:04:17;4.33;;;3.93;;
57401;SDS011;43226;51.110;6.998;2023-04-03T03:06:43;6.17;;;3.70;;
57401;SDS011;43226;51.110;6.998;2023-04-03T03:09:08;6.13;;;3.60;;
57401;SDS011;43226;51.110;6.998;2023-04-03T03:11:33;6.57;;;3.47;;
57401;SDS011;43226;51.110;6.998;2023-04-03T03:13:58;3.83;;;3.50;;
57401;SDS011;43226;51.110;6.998;2023-04-03T03:16:23;4.93;;;3.33;;
57401;SDS011;43226;51.110;6.998;2023-04-03T03:18:49;3.30;;;3.00;;
57401;SDS011;43226;51.110;6.998;2023-04-03T03:21:14;7.40;;;3.87;;
57401;SDS011;43226;51.110;6.998;2023-04-03T03:23:39;4.13;;;3.37;;
57401;SDS011;43226;51.110;6.998;2023-04-03T03:26:06;3.33;;;3.03;;
57401;SDS011;43226;51.110;6.998;2023-04-03T03:28:31;4.57;;;3.77;;
57401;SDS011;43226;51.110;6.998;2023-04-03T03:30:57;3.87;;;2.73;;
57401;SDS011;43226;51.110;6.998;2023-04-03T03:33:22;4.90;;;2.87;;
57401;SDS011;43226;51.110;6.998;2023-04-03T03:35:48;9.43;;;3.00;;
57401;SDS011;43226;51.110;6.998;2023-04-03T03:38:13;3.90;;;2.87;;
57401;SDS011;43226;51.110;6.998;2023-04-03T03:40:38;6.73;;;3.47;;
57401;SDS011;43226;51.110;6.998;2023-04-03T03:43:03;3.00;;;2.70;;
57401;SDS011;43226;51.110;6.998;2023-04-03T03:45:29;3.97;;;2.97;;
57401;SDS011;43226;51.110;6.998;2023-04-03T03:47:54;4.40;;;3.33;;
57401;SDS011;43226;51.110;6.998;2023-04-03T03:50:19;3.70;;;3.27;;
57401;SDS011;43226;51.110;6.998;2023-04-03T03:52:44;3.77;;;3.20;;
57401;SDS011;43226;51.110;6.998;2023-04-03T03:55:10;4.17;;;3.43;;
57401;SDS011;43226;51.110;6.998;2023-04-03T03:57:35;3.83;;;3.07;;
57401;SDS011;43226;51.110;6.998;2023-04-03T04:00:00;2.80;;;2.23;;
57401;SDS011;43226;51.110;6.998;2023-04-03T04:02:26;5.30;;;2.73;;
57401;SDS011;43226;51.110;6.998;2023-04-03T04:04:51;3.90;;;2.60;;
57401;SDS011;43226;51.110;6.998;2023-04-03T04:07:16;8.77;;;2.87;;
57401;SDS011;43226;51.110;6.998;2023-04-03T04:09:41;4.67;;;2.87;;
57401;SDS011;43226;51.110;6.998;2023-04-03T04:12:06;4.43;;;2.63;;
57401;SDS011;43226;51.110;6.998;2023-04-03T04:14:32;4.10;;;2.60;;
57401;SDS011;43226;51.110;6.998;2023-04-03T04:16:57;4.67;;;2.33;;
57401;SDS011;43226;51.110;6.998;2023-04-03T04:19:22;3.67;;;2.50;;
57401;SDS011;43226;51.110;6.998;2023-04-03T04:21:47;3.60;;;2.50;;
57401;SDS011;43226;51.110;6.998;2023-04-03T04:24:12;2.90;;;2.60;;
57401;SDS011;43226;51.110;6.998;2023-04-03T04:26:38;2.70;;;2.30;;
57401;SDS011;43226;51.110;6.998;2023-04-03T04:29:03;5.37;;;2.50;;
57401;SDS011;43226;51.110;6.998;2023-04-03T04:31:28;3.73;;;2.57;;
57401;SDS011;43226;51.110;6.998;2023-04-03T04:33:53;2.30;;;2.20;;
57401;SDS011;43226;51.110;6.998;2023-04-03T04:36:18;4.50;;;2.60;;
57401;SDS011;43226;51.110;6.998;2023-04-03T04:38:44;7.43;;;2.70;;
57401;SDS011;43226;51.110;6.998;2023-04-03T04:41:09;2.40;;;2.30;;
57401;SDS011;43226;51.110;6.998;2023-04-03T04:43:35;3.63;;;2.27;;
57401;SDS011;43226;51.110;6.998;2023-04-03T04:46:04;2.27;;;1.90;;
57401;SDS011;43226;51.110;6.998;2023-04-03T04:48:29;3.10;;;2.20;;
57401;SDS011;43226;51.110;6.998;2023-04-03T04:50:55;2.53;;;1.83;;
57401;SDS011;43226;51.110;6.998;2023-04-03T04:53:20;2.77;;;2.50;;
57401;SDS011;43226;51.110;6.998;2023-04-03T04:55:45;2.90;;;2.10;;
57401;SDS011;43226;51.110;6.998;2023-04-03T04:58:10;7.80;;;2.30;;
57401;SDS011;43226;51.110;6.998;2023-04-03T05:00:35;2.33;;;2.10;;
57401;SDS011;43226;51.110;6.998;2023-04-03T05:03:01;3.50;;;2.27;;
57401;SDS011;43226;51.110;6.998;2023-04-03T05:05:26;3.00;;;2.17;;
57401;SDS011;43226;51.110;6.998;2023-04-03T05:07:51;2.33;;;2.13;;
57401;SDS011;43226;51.110;6.998;2023-04-03T05:10:16;1.87;;;1.60;;
57401;SDS011;43226;51.110;6.998;2023-04-03T05:12:42;2.40;;;2.20;;
57401;SDS011;43226;51.110;6.998;2023-04-03T05:15:07;4.47;;;2.70;;
57401;SDS011;43226;51.110;6.998;2023-04-03T05:17:32;4.07;;;2.60;;
57401;SDS011;43226;51.110;6.998;2023-04-03T05:19:57;3.87;;;2.10;;
57401;SDS011;43226;51.110;6.998;2023-04-03T05:22:23;5.47;;;2.20;;
57401;SDS011;43226;51.110;6.998;2023-04-03T05:24:57;8.87;;;2.93;;
57401;SDS011;43226;51.110;6.998;2023-04-03T05:27:22;4.63;;;2.00;;
57401;SDS011;43226;51.110;6.998;2023-04-03T05:29:49;7.30;;;2.23;;
57401;SDS011;43226;51.110;6.998;2023-04-03T05:32:14;3.23;;;1.90;;
57401;SDS011;43226;51.110;6.998;2023-04-03T05:34:39;4.70;;;2.57;;
57401;SDS011;43226;51.110;6.998;2023-04-03T05:37:05;2.37;;;2.17;;
57401;SDS011;43226;51.110;6.998;2023-04-03T05:39:30;4.90;;;2.10;;
57401;SDS011;43226;51.110;6.998;2023-04-03T05:41:56;4.33;;;1.83;;
57401;SDS011;43226;51.110;6.998;2023-04-03T05:44:21;6.37;;;2.20;;
57401;SDS011;43226;51.110;6.998;2023-04-03T05:46:46;3.43;;;2.27;;
57401;SDS011;43226;51.110;6.998;2023-04-03T05:49:12;6.13;;;3.23;;
57401;SDS011;43226;51.110;6.998;2023-04-03T05:51:38;2.90;;;2.27;;
57401;SDS011;43226;51.110;6.998;2023-04-03T05:56:35;2.80;;;2.27;;
57401;SDS011;43226;51.110;6.998;2023-04-03T05:59:00;5.30;;;2.40;;
57401;SDS011;43226;51.110;6.998;2023-04-03T06:01:25;5.40;;;2.73;;
57401;SDS011;43226;51.110;6.998;2023-04-03T06:03:51;6.70;;;2.27;;
57401;SDS011;43226;51.110;6.998;2023-04-03T06:06:16;10.53;;;2.03;;
57401;SDS011;43226;51.110;6.998;2023-04-03T06:08:41;5.73;;;2.00;;
57401;SDS011;43226;51.110;6.998;2023-04-03T06:11:08;5.20;;;2.40;;
57401;SDS011;43226;51.110;6.998;2023-04-03T06:13:33;4.50;;;2.10;;
57401;SDS011;43226;51.110;6.998;2023-04-03T06:16:00;2.60;;;2.17;;
57401;SDS011;43226;51.110;6.998;2023-04-03T06:18:25;5.33;;;2.30;;
57401;SDS011;43226;51.110;6.998;2023-04-03T06:20:51;4.17;;;3.20;;
57401;SDS011;43226;51.110;6.998;2023-04-03T06:23:16;3.43;;;2.40;;
57401;SDS011;43226;51.110;6.998;2023-04-03T06:25:41;4.43;;;2.30;;
57401;SDS011;43226;51.110;6.998;2023-04-03T06:28:07;4.67;;;2.57;;
57401;SDS011;43226;51.110;6.998;2023-04-03T06:30:34;2.80;;;1.97;;
57401;SDS011;43226;51.110;6.998;2023-04-03T06:33:02;4.07;;;2.47;;
57401;SDS011;43226;51.110;6.998;2023-04-03T06:35:28;5.47;;;2.13;;
57401;SDS011;43226;51.110;6.998;2023-04-03T06:37:55;2.27;;;2.10;;
57401;SDS011;43226;51.110;6.998;2023-04-03T06:40:23;5.90;;;1.93;;
57401;SDS011;43226;51.110;6.998;2023-04-03T06:42:50;6.00;;;2.50;;
57401;SDS011;43226;51.110;6.998;2023-04-03T06:45:15;2.80;;;2.27;;
57401;SDS011;43226;51.110;6.998;2023-04-03T06:47:41;2.43;;;2.23;;
57401;SDS011;43226;51.110;6.998;2023-04-03T06:50:07;3.77;;;2.20;;
57401;SDS011;43226;51.110;6.998;2023-04-03T06:52:33;3.93;;;2.67;;
57401;SDS011;43226;51.110;6.998;2023-04-03T06:54:59;3.87;;;2.10;;
57401;SDS011;43226;51.110;6.998;2023-04-03T06:57:25;6.90;;;2.40;;
57401;SDS011;43226;51.110;6.998;2023-04-03T06:59:50;3.10;;;2.00;;
57401;SDS011;43226;51.110;6.998;2023-04-03T07:02:16;5.00;;;2.17;;
57401;SDS011;43226;51.110;6.998;2023-04-03T07:04:41;2.30;;;2.10;;
57401;SDS011;43226;51.110;6.998;2023-04-03T07:07:06;3.80;;;2.67;;
57401;SDS011;43226;51.110;6.998;2023-04-03T07:09:32;5.07;;;2.77;;
57401;SDS011;43226;51.110;6.998;2023-04-03T07:11:57;5.13;;;2.20;;
57401;SDS011;43226;51.110;6.998;2023-04-03T07:14:22;3.07;;;2.20;;
57401;SDS011;43226;51.110;6.998;2023-04-03T07:16:48;3.37;;;2.30;;
57401;SDS011;43226;51.110;6.998;2023-04-03T07:19:13;4.63;;;2.00;;
57401;SDS011;43226;51.110;6.998;2023-04-03T07:21:39;4.03;;;1.90;;
57401;SDS011;43226;51.110;6.998;2023-04-03T07:24:05;4.93;;;2.07;;
57401;SDS011;43226;51.110;6.998;2023-04-03T07:26:30;2.97;;;1.50;;
57401;SDS011;43226;51.110;6.998;2023-04-03T07:28:56;3.10;;;1.93;;
57401;SDS011;43226;51.110;6.998;2023-04-03T07:31:22;4.50;;;1.63;;
57401;SDS011;43226;51.110;6.998;2023-04-03T07:33:50;3.60;;;1.90;;
57401;SDS011;43226;51.110;6.998;2023-04-03T07:36:17;2.43;;;2.23;;
57401;SDS011;43226;51.110;6.998;2023-04-03T07:38:43;5.70;;;1.80;;
57401;SDS011;43226;51.110;6.998;2023-04-03T07:41:10;2.93;;;1.70;;
57401;SDS011;43226;51.110;6.998;2023-04-03T07:43:37;5.20;;;1.70;;
57401;SDS011;43226;51.110;6.998;2023-04-03T07:46:02;2.67;;;1.70;;
57401;SDS011;43226;51.110;6.998;2023-04-03T07:48:29;4.50;;;1.77;;
57401;SDS011;43226;51.110;6.998;2023-04-03T07:50:58;3.37;;;2.20;;
57401;SDS011;43226;51.110;6.998;2023-04-03T07:53:23;4.90;;;1.43;;
57401;SDS011;43226;51.110;6.998;2023-04-03T07:55:49;5.57;;;2.37;;
57401;SDS011;43226;51.110;6.998;2023-04-03T07:58:17;4.43;;;2.10;;
57401;SDS011;43226;51.110;6.998;2023-04-03T08:00:42;6.03;;;1.70;;
57401;SDS011;43226;51.110;6.998;2023-04-03T08:03:08;2.53;;;1.17;;
57401;SDS011;43226;51.110;6.998;2023-04-03T08:05:37;2.30;;;1.60;;
57401;SDS011;43226;51.110;6.998;2023-04-03T08:08:03;2.43;;;1.83;;
57401;SDS011;43226;51.110;6.998;2023-04-03T08:10:32;1.60;;;1.50;;
57401;SDS011;43226;51.110;6.998;2023-04-03T08:12:57;2.23;;;1.53;;
57401;SDS011;43226;51.110;6.998;2023-04-03T08:15:23;4.63;;;1.70;;
57401;SDS011;43226;51.110;6.998;2023-04-03T08:17:48;6.20;;;1.30;;
57401;SDS011;43226;51.110;6.998;2023-04-03T08:20:13;2.20;;;1.40;;
57401;SDS011;43226;51.110;6.998;2023-04-03T08:22:38;4.10;;;1.83;;
57401;SDS011;43226;51.110;6.998;2023-04-03T08:25:03;6.47;;;1.47;;
57401;SDS011;43226;51.110;6.998;2023-04-03T08:27:29;2.50;;;1.50;;
57401;SDS011;43226;51.110;6.998;2023-04-03T08:29:54;1.53;;;0.90;;
57401;SDS011;43226;51.110;6.998;2023-04-03T08:32:20;3.40;;;1.40;;
57401;SDS011;43226;51.110;6.998;2023-04-03T08:34:45;3.00;;;1.63;;
57401;SDS011;43226;51.110;6.998;2023-04-03T08:37:11;1.20;;;1.10;;
57401;SDS011;43226;51.110;6.998;2023-04-03T08:39:36;1.63;;;1.17;;
57401;SDS011;43226;51.110;6.998;2023-04-03T08:42:02;2.37;;;1.30;;
57401;SDS011;43226;51.110;6.998;2023-04-03T08:44:39;5.87;;;1.50;;
57401;SDS011;43226;51.110;6.998;2023-04-03T08:47:22;1.73;;;1.00;;
57401;SDS011;43226;51.110;6.998;2023-04-03T08:49:56;2.30;;;1.00;;
57401;SDS011;43226;51.110;6.998;2023-04-03T08:57:14;1.40;;;1.10;;
57401;SDS011;43226;51.110;6.998;2023-04-03T08:59:39;4.10;;;1.13;;
57401;SDS011;43226;51.110;6.998;2023-04-03T09:02:15;3.70;;;1.37;;
57401;SDS011;43226;51.110;6.998;2023-04-03T09:04:42;3.17;;;1.20;;
57401;SDS011;43226;51.110;6.998;2023-04-03T09:07:10;2.07;;;1.07;;
57401;SDS011;43226;51.110;6.998;2023-04-03T09:09:46;8.20;;;1.23;;
57401;SDS011;43226;51.110;6.998;2023-04-03T09:12:23;1.10;;;0.97;;
57401;SDS011;43226;51.110;6.998;2023-04-03T09:20:15;2.70;;;1.30;;
57401;SDS011;43226;51.110;6.998;2023-04-03T09:22:42;1.53;;;1.37;;
57401;SDS011;43226;51.110;6.998;2023-04-03T09:27:33;3.13;;;1.80;;
57401;SDS011;43226;51.110;6.998;2023-04-03T09:29:59;1.80;;;1.33;;
57401;SDS011;43226;51.110;6.998;2023-04-03T09:32:28;1.33;;;1.20;;
57401;SDS011;43226;51.110;6.998;2023-04-03T09:34:54;2.00;;;1.23;;
57401;SDS011;43226;51.110;6.998;2023-04-03T09:37:33;2.80;;;1.30;;
57401;SDS011;43226;51.110;6.998;2023-04-03T09:40:00;6.53;;;1.40;;
57401;SDS011;43226;51.110;6.998;2023-04-03T09:42:25;1.20;;;1.10;;
57401;SDS011;43226;51.110;6.998;2023-04-03T09:45:01;2.10;;;1.57;;
57401;SDS011;43226;51.110;6.998;2023-04-03T09:47:31;1.90;;;1.10;;
57401;SDS011;43226;51.110;6.998;2023-04-03T09:52:39;4.00;;;1.20;;
57401;SDS011;43226;51.110;6.998;2023-04-03T09:55:06;1.80;;;1.20;;
57401;SDS011;43226;51.110;6.998;2023-04-03T09:57:32;2.10;;;1.40;;
57401;SDS011;43226;51.110;6.998;2023-04-03T09:59:58;1.83;;;1.40;;
57401;SDS011;43226;51.110;6.998;2023-04-03T10:04:58;3.07;;;1.30;;
57401;SDS011;43226;51.110;6.998;2023-04-03T10:10:15;2.33;;;1.27;;
57401;SDS011;43226;51.110;6.998;2023-04-03T10:12:42;3.10;;;1.93;;
57401;SDS011;43226;51.110;6.998;2023-04-03T10:15:10;2.23;;;1.07;;
57401;SDS011;43226;51.110;6.998;2023-04-03T10:17:47;2.63;;;1.37;;
57401;SDS011;43226;51.110;6.998;2023-04-03T10:40:47;1.43;;;1.07;;
57401;SDS011;43226;51.110;6.998;2023-04-03T10:56:03;1.20;;;1.00;;
57401;SDS011;43226;51.110;6.998;2023-04-03T10:58:44;1.03;;;1.03;;
57401;SDS011;43226;51.110;6.998;2023-04-03T11:01:14;2.30;;;0.93;;
57401;SDS011;43226;51.110;6.998;2023-04-03T11:03:45;2.97;;;1.20;;
57401;SDS011;43226;51.110;6.998;2023-04-03T11:06:12;1.73;;;1.63;;
57401;SDS011;43226;51.110;6.998;2023-04-03T11:08:41;1.20;;;1.10;;
57401;SDS011;43226;51.110;6.998;2023-04-03T11:11:09;1.53;;;0.90;;
57401;SDS011;43226;51.110;6.998;2023-04-03T11:14:10;1.07;;;1.00;;
57401;SDS011;43226;51.110;6.998;2023-04-03T11:16:28;1.63;;;1.30;;
57401;SDS011;43226;51.110;6.998;2023-04-03T11:19:02;2.80;;;1.10;;
57401;SDS011;43226;51.110;6.998;2023-04-03T11:21:39;2.10;;;0.93;;
57401;SDS011;43226;51.110;6.998;2023-04-03T11:24:08;1.47;;;1.00;;
57401;SDS011;43226;51.110;6.998;2023-04-03T11:26:38;5.17;;;1.10;;
57401;SDS011;43226;51.110;6.998;2023-04-03T11:29:07;1.97;;;1.20;;
57401;SDS011;43226;51.110;6.998;2023-04-03T11:31:40;2.60;;;0.90;;
57401;SDS011;43226;51.110;6.998;2023-04-03T11:36:45;2.35;;;0.90;;
57401;SDS011;43226;51.110;6.998;2023-04-03T11:41:47;4.20;;;1.10;;
57401;SDS011;43226;51.110;6.998;2023-04-03T11:47:00;1.40;;;1.30;;
57401;SDS011;43226;51.110;6.998;2023-04-03T11:52:10;2.40;;;1.13;;
57401;SDS011;43226;51.110;6.998;2023-04-03T11:57:13;1.90;;;1.20;;
57401;SDS011;43226;51.110;6.998;2023-04-03T11:59:48;1.03;;;0.93;;
57401;SDS011;43226;51.110;6.998;2023-04-03T12:02:35;0.90;;;0.90;;
57401;SDS011;43226;51.110;6.998;2023-04-03T12:07:43;3.80;;;0.90;;
57401;SDS011;43226;51.110;6.998;2023-04-03T12:10:24;1.53;;;0.87;;
57401;SDS011;43226;51.110;6.998;2023-04-03T12:12:56;1.00;;;0.90;;
57401;SDS011;43226;51.110;6.998;2023-04-03T12:15:25;1.20;;;0.90;;
57401;SDS011;43226;51.110;6.998;2023-04-03T12:17:51;1.50;;;1.20;;
57401;SDS011;43226;51.110;6.998;2023-04-03T12:23:08;6.30;;;1.10;;
57401;SDS011;43226;51.110;6.998;2023-04-03T12:25:51;1.27;;;0.83;;
57401;SDS011;43226;51.110;6.998;2023-04-03T12:28:16;2.20;;;0.90;;
57401;SDS011;43226;51.110;6.998;2023-04-03T12:30:42;1.33;;;1.00;;
57401;SDS011;43226;51.110;6.998;2023-04-03T12:35:43;2.50;;;1.10;;
57401;SDS011;43226;51.110;6.998;2023-04-03T12:48:53;1.50;;;1.20;;
57401;SDS011;43226;51.110;6.998;2023-04-03T12:51:42;1.83;;;1.10;;
57401;SDS011;43226;51.110;6.998;2023-04-03T12:54:18;1.67;;;1.27;;
57401;SDS011;43226;51.110;6.998;2023-04-03T12:56:44;3.80;;;1.20;;
57401;SDS011;43226;51.110;6.998;2023-04-03T12:59:18;2.00;;;0.90;;
57401;SDS011;43226;51.110;6.998;2023-04-03T13:01:44;3.17;;;1.20;;
57401;SDS011;43226;51.110;6.998;2023-04-03T13:04:10;3.57;;;1.20;;
57401;SDS011;43226;51.110;6.998;2023-04-03T13:06:40;1.80;;;0.90;;
57401;SDS011;43226;51.110;6.998;2023-04-03T13:09:06;1.43;;;1.20;;
57401;SDS011;43226;51.110;6.998;2023-04-03T13:11:42;2.20;;;1.33;;
57401;SDS011;43226;51.110;6.998;2023-04-03T13:14:15;2.37;;;0.90;;
57401;SDS011;43226;51.110;6.998;2023-04-03T13:16:41;1.00;;;1.00;;
57401;SDS011;43226;51.110;6.998;2023-04-03T13:19:14;1.53;;;1.30;;
57401;SDS011;43226;51.110;6.998;2023-04-03T13:21:40;1.47;;;1.20;;
57401;SDS011;43226;51.110;6.998;2023-04-03T13:24:05;2.50;;;1.30;;
57401;SDS011;43226;51.110;6.998;2023-04-03T13:26:31;2.10;;;1.30;;
57401;SDS011;43226;51.110;6.998;2023-04-03T13:29:07;1.77;;;1.30;;
57401;SDS011;43226;51.110;6.998;2023-04-03T13:31:42;6.73;;;1.17;;
57401;SDS011;43226;51.110;6.998;2023-04-03T13:34:12;2.00;;;1.00;;
57401;SDS011;43226;51.110;6.998;2023-04-03T13:36:39;1.20;;;1.10;;
57401;SDS011;43226;51.110;6.998;2023-04-03T13:39:06;2.70;;;1.10;;
57401;SDS011;43226;51.110;6.998;2023-04-03T13:41:33;1.67;;;1.10;;
57401;SDS011;43226;51.110;6.998;2023-04-03T13:44:25;1.93;;;1.10;;
57401;SDS011;43226;51.110;6.998;2023-04-03T13:51:47;2.20;;;1.30;;
57401;SDS011;43226;51.110;6.998;2023-04-03T13:54:18;1.40;;;0.90;;
57401;SDS011;43226;51.110;6.998;2023-04-03T13:56:44;2.03;;;1.10;;
57401;SDS011;43226;51.110;6.998;2023-04-03T14:01:38;2.35;;;1.40;;
57401;SDS011;43226;51.110;6.998;2023-04-03T14:06:56;6.23;;;1.50;;
57401;SDS011;43226;51.110;6.998;2023-04-03T14:09:22;4.03;;;1.10;;
57401;SDS011;43226;51.110;6.998;2023-04-03T14:11:48;1.67;;;1.20;;
57401;SDS011;43226;51.110;6.998;2023-04-03T14:14:17;2.23;;;1.00;;
57401;SDS011;43226;51.110;6.998;2023-04-03T14:16:44;5.30;;;1.40;;
57401;SDS011;43226;51.110;6.998;2023-04-03T14:19:18;5.33;;;1.00;;
57401;SDS011;43226;51.110;6.998;2023-04-03T14:21:44;2.93;;;1.40;;
57401;SDS011;43226;51.110;6.998;2023-04-03T14:24:09;2.73;;;1.33;;
57401;SDS011;43226;51.110;6.998;2023-04-03T14:26:36;3.47;;;1.23;;
57401;SDS011;43226;51.110;6.998;2023-04-03T14:29:01;3.10;;;1.40;;
57401;SDS011;43226;51.110;6.998;2023-04-03T14:31:27;1.30;;;0.97;;
57401;SDS011;43226;51.110;6.998;2023-04-03T14:33:52;1.30;;;1.20;;
57401;SDS011;43226;51.110;6.998;2023-04-03T14:36:18;2.37;;;1.50;;
57401;SDS011;43226;51.110;6.998;2023-04-03T14:38:45;2.40;;;1.00;;
57401;SDS011;43226;51.110;6.998;2023-04-03T14:41:14;1.97;;;1.20;;
57401;SDS011;43226;51.110;6.998;2023-04-03T14:43:40;5.13;;;1.47;;
57401;SDS011;43226;51.110;6.998;2023-04-03T14:46:05;1.47;;;1.20;;
57401;SDS011;43226;51.110;6.998;2023-04-03T14:48:34;2.27;;;1.40;;
57401;SDS011;43226;51.110;6.998;2023-04-03T14:50:59;3.27;;;1.77;;
57401;SDS011;43226;51.110;6.998;2023-04-03T14:53:25;1.97;;;1.40;;
57401;SDS011;43226;51.110;6.998;2023-04-03T14:55:51;1.67;;;1.10;;
57401;SDS011;43226;51.110;6.998;2023-04-03T14:58:17;2.43;;;1.10;;
57401;SDS011;43226;51.110;6.998;2023-04-03T15:00:43;3.03;;;1.57;;
57401;SDS011;43226;51.110;6.998;2023-04-03T15:03:18;3.07;;;1.50;;
57401;SDS011;43226;51.110;6.998;2023-04-03T15:05:44;6.27;;;1.60;;
57401;SDS011;43226;51.110;6.998;2023-04-03T15:08:20;2.03;;;1.40;;
57401;SDS011;43226;51.110;6.998;2023-04-03T15:10:46;1.20;;;1.10;;
57401;SDS011;43226;51.110;6.998;2023-04-03T15:13:11;2.10;;;1.10;;
57401;SDS011;43226;51.110;6.998;2023-04-03T15:15:37;1.63;;;1.10;;
57401;SDS011;43226;51.110;6.998;2023-04-03T15:18:02;1.23;;;1.13;;
57401;SDS011;43226;51.110;6.998;2023-04-03T15:20:27;1.10;;;1.00;;
57401;SDS011;43226;51.110;6.998;2023-04-03T15:22:55;6.60;;;1.60;;
57401;SDS011;43226;51.110;6.998;2023-04-03T15:25:21;4.27;;;1.37;;
57401;SDS011;43226;51.110;6.998;2023-04-03T15:27:46;2.60;;;1.10;;
57401;SDS011;43226;51.110;6.998;2023-04-03T15:30:15;2.90;;;1.17;;
57401;SDS011;43226;51.110;6.998;2023-04-03T15:32:41;3.27;;;1.40;;
57401;SDS011;43226;51.110;6.998;2023-04-03T15:35:06;14.83;;;7.37;;
57401;SDS011;43226;51.110;6.998;2023-04-03T15:37:31;6.07;;;3.10;;
57401;SDS011;43226;51.110;6.998;2023-04-03T15:39:56;2.27;;;1.80;;
57401;SDS011;43226;51.110;6.998;2023-04-03T15:42:22;3.70;;;1.40;;
57401;SDS011;43226;51.110;6.998;2023-04-03T15:44:47;3.67;;;1.27;;
57401;SDS011;43226;51.110;6.998;2023-04-03T15:47:12;4.37;;;1.23;;
57401;SDS011;43226;51.110;6.998;2023-04-03T15:49:37;2.23;;;1.67;;
57401;SDS011;43226;51.110;6.998;2023-04-03T15:52:03;2.23;;;1.30;;
57401;SDS011;43226;51.110;6.998;2023-04-03T15:54:28;2.23;;;1.07;;
57401;SDS011;43226;51.110;6.998;2023-04-03T15:56:54;3.30;;;1.50;;
57401;SDS011;43226;51.110;6.998;2023-04-03T15:59:20;1.83;;;1.37;;
57401;SDS011;43226;51.110;6.998;2023-04-03T16:01:45;1.57;;;1.37;;
57401;SDS011;43226;51.110;6.998;2023-04-03T16:04:11;3.47;;;1.40;;
57401;SDS011;43226;51.110;6.998;2023-04-03T16:06:36;1.87;;;1.07;;
57401;SDS011;43226;51.110;6.998;2023-04-03T16:09:02;2.60;;;1.20;;
57401;SDS011;43226;51.110;6.998;2023-04-03T16:11:28;1.30;;;1.20;;
57401;SDS011;43226;51.110;6.998;2023-04-03T16:13:54;1.43;;;1.07;;
57401;SDS011;43226;51.110;6.998;2023-04-03T16:16:19;1.97;;;1.47;;
57401;SDS011;43226;51.110;6.998;2023-04-03T16:18:45;3.63;;;2.07;;
57401;SDS011;43226;51.110;6.998;2023-04-03T16:21:12;2.93;;;1.80;;
57401;SDS011;43226;51.110;6.998;2023-04-03T16:23:38;3.53;;;1.30;;
57401;SDS011;43226;51.110;6.998;2023-04-03T16:26:04;2.20;;;1.40;;
57401;SDS011;43226;51.110;6.998;2023-04-03T16:28:29;3.23;;;1.30;;